sensor_id;sensor_type;location;lat;lon;timestamp;temperature;humidity
8400;DHT22;4237;47.030;15.396;2023-03-21T11:21:25;30.80;66.70
8400;DHT22;4237;47.030;15.396;2023-03-21T11:23:56;31.20;67.30
8400;DHT22;4237;47.030;15.396;2023-03-21T11:26:33;32.80;64.20
8400;DHT22;4237;47.030;15.396;2023-03-21T11:32:22;32.70;62.50
8400;DHT22;4237;47.030;15.396;2023-03-21T11:35:05;30.30;64.80
8400;DHT22;4237;47.030;15.396;2023-03-21T11:37:40;28.30;65.20
8400;DHT22;4237;47.030;15.396;2023-03-21T11:40:25;24.50;71.00
8400;DHT22;4237;47.030;15.396;2023-03-21T11:43:01;22.40;92.40
8400;DHT22;4237;47.030;15.396;2023-03-21T11:45:33;20.90;95.20
8400;DHT22;4237;47.030;15.396;2023-03-21T11:48:10;20.20;97.10
8400;DHT22;4237;47.030;15.396;2023-03-21T11:50:45;19.90;97.50
8400;DHT22;4237;47.030;15.396;2023-03-21T11:53:19;19.80;98.90
8400;DHT22;4237;47.030;15.396;2023-03-21T12:06:52;26.40;82.50
8400;DHT22;4237;47.030;15.396;2023-03-21T12:18:02;27.00;81.20
8400;DHT22;4237;47.030;15.396;2023-03-21T12:20:33;27.20;86.00
8400;DHT22;4237;47.030;15.396;2023-03-21T12:26:18;29.40;67.30
8400;DHT22;4237;47.030;15.396;2023-03-21T12:44:44;26.50;72.50
8400;DHT22;4237;47.030;15.396;2023-03-21T12:47:20;28.70;69.90
8400;DHT22;4237;47.030;15.396;2023-03-21T12:49:55;30.90;67.80
8400;DHT22;4237;47.030;15.396;2023-03-21T12:55:12;28.40;93.80
8400;DHT22;4237;47.030;15.396;2023-03-21T12:57:44;28.10;90.70
8400;DHT22;4237;47.030;15.396;2023-03-21T13:00:23;27.60;88.10
8400;DHT22;4237;47.030;15.396;2023-03-21T13:02:55;23.90;91.30
8400;DHT22;4237;47.030;15.396;2023-03-21T13:10:33;21.00;95.20
8400;DHT22;4237;47.030;15.396;2023-03-21T13:13:35;21.30;94.80
8400;DHT22;4237;47.030;15.396;2023-03-21T13:18:58;22.90;94.10
8400;DHT22;4237;47.030;15.396;2023-03-21T13:24:25;24.60;90.80
8400;DHT22;4237;47.030;15.396;2023-03-21T13:29:46;26.40;87.00
8400;DHT22;4237;47.030;15.396;2023-03-21T13:32:26;25.90;86.90
8400;DHT22;4237;47.030;15.396;2023-03-21T13:34:56;26.20;88.00
8400;DHT22;4237;47.030;15.396;2023-03-21T13:37:31;26.40;89.10
8400;DHT22;4237;47.030;15.396;2023-03-21T13:40:02;26.50;87.80
8400;DHT22;4237;47.030;15.396;2023-03-21T13:42:33;26.10;89.00
8400;DHT22;4237;47.030;15.396;2023-03-21T13:45:05;26.60;88.50
8400;DHT22;4237;47.030;15.396;2023-03-21T13:55:43;27.00;86.40
8400;DHT22;4237;47.030;15.396;2023-03-21T14:01:35;26.40;86.40
8400;DHT22;4237;47.030;15.396;2023-03-21T14:04:16;26.50;87.50
8400;DHT22;4237;47.030;15.396;2023-03-21T14:06:57;24.20;89.00
8400;DHT22;4237;47.030;15.396;2023-03-21T14:09:35;22.80;91.80
8400;DHT22;4237;47.030;15.396;2023-03-21T14:12:07;21.70;94.10
8400;DHT22;4237;47.030;15.396;2023-03-21T14:14:39;21.70;94.50
8400;DHT22;4237;47.030;15.396;2023-03-21T14:17:22;21.60;94.20
8400;DHT22;4237;47.030;15.396;2023-03-21T14:19:57;21.60;94.90
8400;DHT22;4237;47.030;15.396;2023-03-21T14:22:25;21.30;95.30
8400;DHT22;4237;47.030;15.396;2023-03-21T14:24:57;21.60;95.30
8400;DHT22;4237;47.030;15.396;2023-03-21T14:27:33;21.80;94.60
8400;DHT22;4237;47.030;15.396;2023-03-21T14:29:58;21.30;95.60
8400;DHT22;4237;47.030;15.396;2023-03-21T14:32:29;21.50;96.10
8400;DHT22;4237;47.030;15.396;2023-03-21T14:34:59;21.30;96.30
8400;DHT22;4237;47.030;15.396;2023-03-21T14:37:38;21.50;95.20
8400;DHT22;4237;47.030;15.396;2023-03-21T14:40:06;21.60;95.80
8400;DHT22;4237;47.030;15.396;2023-03-21T14:42:36;22.10;96.40
8400;DHT22;4237;47.030;15.396;2023-03-21T14:45:16;22.20;95.30
8400;DHT22;4237;47.030;15.396;2023-03-21T14:50:38;21.80;94.50
8400;DHT22;4237;47.030;15.396;2023-03-21T14:53:10;21.40;96.40
8400;DHT22;4237;47.030;15.396;2023-03-21T14:55:56;21.40;96.20
8400;DHT22;4237;47.030;15.396;2023-03-21T14:58:24;20.80;97.40
8400;DHT22;4237;47.030;15.396;2023-03-21T15:00:57;20.40;98.40
8400;DHT22;4237;47.030;15.396;2023-03-21T15:03:26;19.90;99.50
8400;DHT22;4237;47.030;15.396;2023-03-21T15:05:56;19.60;99.90
8400;DHT22;4237;47.030;15.396;2023-03-21T15:08:27;19.70;99.90
8400;DHT22;4237;47.030;15.396;2023-03-21T15:11:01;19.70;99.90
8400;DHT22;4237;47.030;15.396;2023-03-21T15:13:32;19.50;99.90
8400;DHT22;4237;47.030;15.396;2023-03-21T15:16:02;19.30;99.90
8400;DHT22;4237;47.030;15.396;2023-03-21T15:18:33;19.40;99.90
8400;DHT22;4237;47.030;15.396;2023-03-21T15:21:07;19.20;99.90
8400;DHT22;4237;47.030;15.396;2023-03-21T15:23:40;19.10;99.90
8400;DHT22;4237;47.030;15.396;2023-03-21T15:26:14;19.20;99.90
8400;DHT22;4237;47.030;15.396;2023-03-21T15:28:49;19.00;99.90
8400;DHT22;4237;47.030;15.396;2023-03-21T15:31:20;18.80;99.90
8400;DHT22;4237;47.030;15.396;2023-03-21T15:33:52;18.70;99.90
8400;DHT22;4237;47.030;15.396;2023-03-21T15:38:54;18.80;99.90
8400;DHT22;4237;47.030;15.396;2023-03-21T15:41:25;18.60;99.90
8400;DHT22;4237;47.030;15.396;2023-03-21T15:46:48;18.70;99.90
8400;DHT22;4237;47.030;15.396;2023-03-21T15:49:23;18.70;99.90
8400;DHT22;4237;47.030;15.396;2023-03-21T15:52:10;18.60;99.90
8400;DHT22;4237;47.030;15.396;2023-03-21T15:54:48;18.60;99.90
8400;DHT22;4237;47.030;15.396;2023-03-21T15:57:31;18.90;99.90
8400;DHT22;4237;47.030;15.396;2023-03-21T16:00:20;18.90;99.90
8400;DHT22;4237;47.030;15.396;2023-03-21T16:02:51;19.10;99.90
8400;DHT22;4237;47.030;15.396;2023-03-21T16:05:32;18.80;99.90
8400;DHT22;4237;47.030;15.396;2023-03-21T16:08:03;18.90;99.90
8400;DHT22;4237;47.030;15.396;2023-03-21T16:10:36;19.20;99.90
8400;DHT22;4237;47.030;15.396;2023-03-21T16:13:04;20.00;99.20
8400;DHT22;4237;47.030;15.396;2023-03-21T16:15:33;20.80;92.70
8400;DHT22;4237;47.030;15.396;2023-03-21T16:18:04;21.00;92.60
8400;DHT22;4237;47.030;15.396;2023-03-21T16:20:38;20.70;92.40
8400;DHT22;4237;47.030;15.396;2023-03-21T16:23:08;20.20;93.30
8400;DHT22;4237;47.030;15.396;2023-03-21T16:25:37;19.80;93.40
8400;DHT22;4237;47.030;15.396;2023-03-21T16:28:26;19.40;98.50
8400;DHT22;4237;47.030;15.396;2023-03-21T16:30:55;19.10;99.30
8400;DHT22;4237;47.030;15.396;2023-03-21T16:33:23;18.80;99.90
8400;DHT22;4237;47.030;15.396;2023-03-21T16:35:55;18.30;99.90
8400;DHT22;4237;47.030;15.396;2023-03-21T16:38:24;17.90;99.90
8400;DHT22;4237;47.030;15.396;2023-03-21T16:40:52;17.80;99.90
8400;DHT22;4237;47.030;15.396;2023-03-21T16:43:21;17.70;99.90
8400;DHT22;4237;47.030;15.396;2023-03-21T16:45:50;17.40;99.90
8400;DHT22;4237;47.030;15.396;2023-03-21T16:48:18;17.20;99.90
8400;DHT22;4237;47.030;15.396;2023-03-21T16:50:47;17.00;99.90
8400;DHT22;4237;47.030;15.396;2023-03-21T16:53:16;16.90;99.90
8400;DHT22;4237;47.030;15.396;2023-03-21T16:55:45;16.80;99.90
8400;DHT22;4237;47.030;15.396;2023-03-21T16:58:14;16.60;99.90
8400;DHT22;4237;47.030;15.396;2023-03-21T17:00:43;16.50;99.90
8400;DHT22;4237;47.030;15.396;2023-03-21T17:03:14;16.50;99.90
8400;DHT22;4237;47.030;15.396;2023-03-21T17:05:45;16.10;99.90
8400;DHT22;4237;47.030;15.396;2023-03-21T17:08:17;16.00;99.90
8400;DHT22;4237;47.030;15.396;2023-03-21T17:10:46;15.80;99.90
8400;DHT22;4237;47.030;15.396;2023-03-21T17:13:15;15.60;99.90
8400;DHT22;4237;47.030;15.396;2023-03-21T17:15:44;15.20;99.90
8400;DHT22;4237;47.030;15.396;2023-03-21T17:18:12;15.00;99.90
8400;DHT22;4237;47.030;15.396;2023-03-21T17:20:41;14.70;99.90
8400;DHT22;4237;47.030;15.396;2023-03-21T17:23:09;14.40;99.90
8400;DHT22;4237;47.030;15.396;2023-03-21T17:25:39;14.10;99.90
8400;DHT22;4237;47.030;15.396;2023-03-21T17:28:08;13.80;99.90
8400;DHT22;4237;47.030;15.396;2023-03-21T17:30:37;13.60;99.90
8400;DHT22;4237;47.030;15.396;2023-03-21T17:33:06;13.40;99.90
8400;DHT22;4237;47.030;15.396;2023-03-21T17:35:35;13.20;99.90
8400;DHT22;4237;47.030;15.396;2023-03-21T17:38:04;13.00;99.90
8400;DHT22;4237;47.030;15.396;2023-03-21T17:40:34;12.80;99.90
8400;DHT22;4237;47.030;15.396;2023-03-21T17:43:07;12.70;99.90
8400;DHT22;4237;47.030;15.396;2023-03-21T17:45:35;12.50;99.90
8400;DHT22;4237;47.030;15.396;2023-03-21T17:48:04;12.40;99.90
8400;DHT22;4237;47.030;15.396;2023-03-21T17:50:34;12.20;99.90
8400;DHT22;4237;47.030;15.396;2023-03-21T17:53:04;12.10;99.90
8400;DHT22;4237;47.030;15.396;2023-03-21T17:55:35;12.10;99.90
8400;DHT22;4237;47.030;15.396;2023-03-21T17:58:03;11.90;99.90
8400;DHT22;4237;47.030;15.396;2023-03-21T18:00:33;11.90;99.90
8400;DHT22;4237;47.030;15.396;2023-03-21T18:03:02;11.80;99.90
8400;DHT22;4237;47.030;15.396;2023-03-21T18:05:31;11.70;99.90
8400;DHT22;4237;47.030;15.396;2023-03-21T18:08:00;11.70;99.90
8400;DHT22;4237;47.030;15.396;2023-03-21T18:10:29;11.60;99.90
8400;DHT22;4237;47.030;15.396;2023-03-21T18:12:58;11.60;99.90
8400;DHT22;4237;47.030;15.396;2023-03-21T18:15:27;11.60;99.90
8400;DHT22;4237;47.030;15.396;2023-03-21T18:17:56;11.50;99.90
8400;DHT22;4237;47.030;15.396;2023-03-21T18:20:27;11.50;99.90
8400;DHT22;4237;47.030;15.396;2023-03-21T18:22:57;11.60;99.90
8400;DHT22;4237;47.030;15.396;2023-03-21T18:25:26;11.60;99.90
8400;DHT22;4237;47.030;15.396;2023-03-21T18:27:55;11.60;99.90
8400;DHT22;4237;47.030;15.396;2023-03-21T18:30:25;11.60;99.90
8400;DHT22;4237;47.030;15.396;2023-03-21T18:32:55;11.60;99.90
8400;DHT22;4237;47.030;15.396;2023-03-21T18:35:24;11.60;99.90
8400;DHT22;4237;47.030;15.396;2023-03-21T18:37:54;11.50;99.90
8400;DHT22;4237;47.030;15.396;2023-03-21T18:40:23;11.50;99.90
8400;DHT22;4237;47.030;15.396;2023-03-21T18:42:54;11.50;99.90
8400;DHT22;4237;47.030;15.396;2023-03-21T18:45:24;11.40;99.90
8400;DHT22;4237;47.030;15.396;2023-03-21T18:47:55;11.30;99.90
8400;DHT22;4237;47.030;15.396;2023-03-21T18:50:26;11.20;99.90
8400;DHT22;4237;47.030;15.396;2023-03-21T18:52:55;11.10;99.90
8400;DHT22;4237;47.030;15.396;2023-03-21T18:55:25;11.00;99.90
8400;DHT22;4237;47.030;15.396;2023-03-21T18:57:54;10.80;99.90
8400;DHT22;4237;47.030;15.396;2023-03-21T19:00:25;10.70;99.90
8400;DHT22;4237;47.030;15.396;2023-03-21T19:02:55;10.60;99.90
8400;DHT22;4237;47.030;15.396;2023-03-21T19:05:24;10.40;99.90
8400;DHT22;4237;47.030;15.396;2023-03-21T19:07:55;10.30;99.90
8400;DHT22;4237;47.030;15.396;2023-03-21T19:10:25;10.30;99.90
8400;DHT22;4237;47.030;15.396;2023-03-21T19:12:56;10.30;99.90
8400;DHT22;4237;47.030;15.396;2023-03-21T19:15:25;10.20;99.90
8400;DHT22;4237;47.030;15.396;2023-03-21T19:17:55;10.10;99.90
8400;DHT22;4237;47.030;15.396;2023-03-21T19:20:25;10.00;99.90
8400;DHT22;4237;47.030;15.396;2023-03-21T19:22:54;9.90;99.90
8400;DHT22;4237;47.030;15.396;2023-03-21T19:25:24;9.80;99.90
8400;DHT22;4237;47.030;15.396;2023-03-21T19:27:54;9.80;99.90
8400;DHT22;4237;47.030;15.396;2023-03-21T20:57:49;8.60;99.90
8400;DHT22;4237;47.030;15.396;2023-03-21T21:00:20;8.40;99.90
8400;DHT22;4237;47.030;15.396;2023-03-21T21:02:50;8.30;99.90
8400;DHT22;4237;47.030;15.396;2023-03-21T21:05:21;8.20;99.90
8400;DHT22;4237;47.030;15.396;2023-03-21T21:07:50;8.00;99.90
8400;DHT22;4237;47.030;15.396;2023-03-21T21:10:20;7.90;99.90
8400;DHT22;4237;47.030;15.396;2023-03-21T21:12:51;7.90;99.90
8400;DHT22;4237;47.030;15.396;2023-03-21T21:15:20;7.80;99.90
8400;DHT22;4237;47.030;15.396;2023-03-21T21:17:49;7.80;99.90
8400;DHT22;4237;47.030;15.396;2023-03-21T21:20:20;7.90;99.90
8400;DHT22;4237;47.030;15.396;2023-03-21T21:22:50;7.70;99.90
8400;DHT22;4237;47.030;15.396;2023-03-21T21:25:19;7.70;99.90
8400;DHT22;4237;47.030;15.396;2023-03-21T21:27:49;7.70;99.90
8400;DHT22;4237;47.030;15.396;2023-03-21T21:30:18;7.80;99.90
8400;DHT22;4237;47.030;15.396;2023-03-21T21:32:46;7.90;99.90
8400;DHT22;4237;47.030;15.396;2023-03-21T21:35:16;7.80;99.90
8400;DHT22;4237;47.030;15.396;2023-03-21T21:37:47;7.70;99.90
8400;DHT22;4237;47.030;15.396;2023-03-21T21:40:17;7.70;99.90
8400;DHT22;4237;47.030;15.396;2023-03-21T21:42:48;7.90;99.90
8400;DHT22;4237;47.030;15.396;2023-03-21T21:45:17;7.80;99.90
8400;DHT22;4237;47.030;15.396;2023-03-21T21:47:46;7.70;99.90
8400;DHT22;4237;47.030;15.396;2023-03-21T21:50:15;7.70;99.90
8400;DHT22;4237;47.030;15.396;2023-03-21T21:52:44;7.60;99.90
8400;DHT22;4237;47.030;15.396;2023-03-21T21:55:14;7.40;99.90
8400;DHT22;4237;47.030;15.396;2023-03-21T21:57:44;7.30;99.90
8400;DHT22;4237;47.030;15.396;2023-03-21T22:00:18;7.20;99.90
8400;DHT22;4237;47.030;15.396;2023-03-21T22:02:47;7.10;99.90
8400;DHT22;4237;47.030;15.396;2023-03-21T22:05:17;7.10;99.90
8400;DHT22;4237;47.030;15.396;2023-03-21T22:07:46;7.10;99.90
8400;DHT22;4237;47.030;15.396;2023-03-21T22:10:15;7.20;99.90
8400;DHT22;4237;47.030;15.396;2023-03-21T22:12:44;7.10;99.90
8400;DHT22;4237;47.030;15.396;2023-03-21T22:15:13;7.20;99.90
8400;DHT22;4237;47.030;15.396;2023-03-21T22:17:44;7.20;99.90
8400;DHT22;4237;47.030;15.396;2023-03-21T22:20:15;7.10;99.90
8400;DHT22;4237;47.030;15.396;2023-03-21T22:22:44;7.10;99.90
8400;DHT22;4237;47.030;15.396;2023-03-21T22:25:15;7.00;99.90
8400;DHT22;4237;47.030;15.396;2023-03-21T22:27:44;6.80;99.90
8400;DHT22;4237;47.030;15.396;2023-03-21T22:30:14;6.80;99.90
8400;DHT22;4237;47.030;15.396;2023-03-21T22:32:45;6.80;99.90
8400;DHT22;4237;47.030;15.396;2023-03-21T22:35:14;6.80;99.90
8400;DHT22;4237;47.030;15.396;2023-03-21T22:37:43;6.70;99.90
8400;DHT22;4237;47.030;15.396;2023-03-21T22:40:14;6.60;99.90
8400;DHT22;4237;47.030;15.396;2023-03-21T22:42:43;6.60;99.90
8400;DHT22;4237;47.030;15.396;2023-03-21T22:45:12;6.50;99.90
8400;DHT22;4237;47.030;15.396;2023-03-21T22:47:41;6.50;99.90
8400;DHT22;4237;47.030;15.396;2023-03-21T22:50:10;6.40;99.90
8400;DHT22;4237;47.030;15.396;2023-03-21T22:52:38;6.30;99.90
8400;DHT22;4237;47.030;15.396;2023-03-21T22:55:07;6.30;99.90
8400;DHT22;4237;47.030;15.396;2023-03-21T22:57:38;6.30;99.90
8400;DHT22;4237;47.030;15.396;2023-03-21T23:00:07;6.10;99.90
8400;DHT22;4237;47.030;15.396;2023-03-21T23:02:40;6.10;99.90
8400;DHT22;4237;47.030;15.396;2023-03-21T23:05:09;6.10;99.90
8400;DHT22;4237;47.030;15.396;2023-03-21T23:07:38;6.10;99.90
8400;DHT22;4237;47.030;15.396;2023-03-21T23:10:08;6.10;99.90
8400;DHT22;4237;47.030;15.396;2023-03-21T23:12:39;6.00;99.90
8400;DHT22;4237;47.030;15.396;2023-03-21T23:15:09;6.10;99.90
8400;DHT22;4237;47.030;15.396;2023-03-21T23:17:38;6.00;99.90
8400;DHT22;4237;47.030;15.396;2023-03-21T23:20:07;5.90;99.90
8400;DHT22;4237;47.030;15.396;2023-03-21T23:22:36;5.90;99.90
8400;DHT22;4237;47.030;15.396;2023-03-21T23:25:06;5.90;99.90
8400;DHT22;4237;47.030;15.396;2023-03-21T23:27:35;5.80;99.90
8400;DHT22;4237;47.030;15.396;2023-03-21T23:30:05;5.70;99.90
8400;DHT22;4237;47.030;15.396;2023-03-21T23:32:34;5.60;99.90
8400;DHT22;4237;47.030;15.396;2023-03-21T23:35:04;5.60;99.90
8400;DHT22;4237;47.030;15.396;2023-03-21T23:37:33;5.60;99.90
8400;DHT22;4237;47.030;15.396;2023-03-21T23:40:02;5.60;99.90
8400;DHT22;4237;47.030;15.396;2023-03-21T23:42:32;5.50;99.90
8400;DHT22;4237;47.030;15.396;2023-03-21T23:45:02;5.50;99.90
8400;DHT22;4237;47.030;15.396;2023-03-21T23:47:31;5.40;99.90
8400;DHT22;4237;47.030;15.396;2023-03-21T23:49:59;5.40;99.90
8400;DHT22;4237;47.030;15.396;2023-03-21T23:52:28;5.50;99.90
8400;DHT22;4237;47.030;15.396;2023-03-21T23:54:57;5.40;99.90
8400;DHT22;4237;47.030;15.396;2023-03-21T23:57:25;5.40;99.90
8400;DHT22;4237;47.030;15.396;2023-03-21T23:59:54;5.30;99.90
